Time;durP1;ratioP1;P1;durP2;ratioP2;P2;SDS_P1;SDS_P2;PMS_P1;PMS_P2;Temp;Humidity;BMP_temperature;BMP_pressure;BME280_temperature;BME280_humidity;BME280_pressure;Samples;Min_cycle;Max_cycle;Signal;HPM_P1;HPM_P2
2022/03/21 00:01:51;;;;;;;66.93;35.73;;;4.50;99.90;;;;;;4990287;28;20184;-71
2022/03/21 00:04:17;;;;;;;64.50;37.43;;;4.40;99.90;;;;;;4976438;28;20200;-72
2022/03/21 00:06:43;;;;;;;72.33;39.13;;;4.50;99.90;;;;;;4984243;28;20195;-71
2022/03/21 00:09:09;;;;;;;73.37;39.83;;;4.40;99.90;;;;;;4982089;28;20211;-71
2022/03/21 00:11:35;;;;;;;79.70;40.20;;;4.30;99.90;;;;;;4976748;28;20644;-71
2022/03/21 00:14:01;;;;;;;68.87;36.80;;;4.30;99.90;;;;;;4976893;28;20197;-72
2022/03/21 00:16:27;;;;;;;68.33;39.73;;;4.30;99.90;;;;;;4975115;28;20189;-71
2022/03/21 00:18:53;;;;;;;68.57;39.77;;;4.40;99.90;;;;;;4976647;28;20592;-71
2022/03/21 00:21:19;;;;;;;74.97;40.00;;;4.30;99.90;;;;;;4959356;28;20196;-71
2022/03/21 00:23:46;;;;;;;74.30;39.40;;;4.30;99.90;;;;;;4975072;28;20231;-71
2022/03/21 00:26:13;;;;;;;72.83;40.50;;;4.30;99.90;;;;;;4975130;28;20189;-71
2022/03/21 00:28:39;;;;;;;68.77;38.07;;;4.30;99.90;;;;;;4975712;28;20192;-71
2022/03/21 00:31:05;;;;;;;74.20;40.13;;;4.20;99.90;;;;;;4976456;28;20599;-71
2022/03/21 00:33:31;;;;;;;74.53;39.83;;;4.20;99.90;;;;;;4981642;28;20659;-71
2022/03/21 00:35:58;;;;;;;80.00;40.20;;;4.10;99.90;;;;;;4984910;28;20189;-71
2022/03/21 00:38:24;;;;;;;68.87;38.83;;;4.10;99.90;;;;;;4949761;28;20550;-71
2022/03/21 00:40:50;;;;;;;68.47;38.17;;;4.00;99.90;;;;;;4975217;28;20192;-72
2022/03/21 00:43:22;;;;;;;70.07;38.27;;;4.00;99.90;;;;;;4989714;28;20662;-71
2022/03/21 00:45:48;;;;;;;64.27;38.27;;;3.90;99.90;;;;;;4995000;28;20192;-71
2022/03/21 00:48:14;;;;;;;70.73;37.60;;;3.90;99.90;;;;;;4983484;28;20197;-71
2022/03/21 00:50:40;;;;;;;65.80;38.73;;;3.80;99.90;;;;;;4974922;28;20220;-71
2022/03/21 00:53:06;;;;;;;75.17;40.53;;;3.80;99.90;;;;;;4975736;28;20283;-71
2022/03/21 00:55:31;;;;;;;77.10;39.43;;;3.80;99.90;;;;;;4974314;28;20188;-71
2022/03/21 00:57:58;;;;;;;73.80;40.10;;;3.70;99.90;;;;;;4975928;28;20227;-71
2022/03/21 01:00:37;;;;;;;71.33;39.83;;;3.70;99.90;;;;;;4988881;28;20223;-71
2022/03/21 01:03:03;;;;;;;65.33;39.73;;;3.70;99.90;;;;;;4983944;28;20192;-71
2022/03/21 01:05:29;;;;;;;71.43;39.13;;;3.70;99.90;;;;;;4958854;28;20194;-71
2022/03/21 01:07:55;;;;;;;72.40;37.43;;;3.70;99.90;;;;;;4958208;28;20685;-69
2022/03/21 01:10:22;;;;;;;66.77;39.47;;;3.70;99.90;;;;;;4981633;28;20184;-71
2022/03/21 01:12:49;;;;;;;69.73;38.40;;;3.60;99.90;;;;;;4984614;28;20184;-71
2022/03/21 01:15:17;;;;;;;74.77;39.77;;;3.60;99.90;;;;;;4975440;28;20200;-71
2022/03/21 01:17:44;;;;;;;70.30;39.97;;;3.60;99.90;;;;;;4974336;28;20185;-71
2022/03/21 01:20:12;;;;;;;76.70;39.50;;;3.50;99.90;;;;;;4958599;28;20199;-71
2022/03/21 01:22:38;;;;;;;72.13;38.27;;;3.50;99.90;;;;;;4974093;28;20184;-71
2022/03/21 01:25:04;;;;;;;75.80;38.27;;;3.50;99.90;;;;;;4974063;28;20196;-71
2022/03/21 01:27:31;;;;;;;68.53;37.27;;;3.50;99.90;;;;;;4983729;28;20219;-71
2022/03/21 01:29:57;;;;;;;79.83;42.30;;;3.50;99.90;;;;;;4979782;28;20180;-71
2022/03/21 01:32:23;;;;;;;66.93;39.97;;;3.40;99.90;;;;;;4975480;28;20293;-71
2022/03/21 01:34:48;;;;;;;77.63;39.27;;;3.40;99.90;;;;;;4973840;28;20195;-71
2022/03/21 01:37:14;;;;;;;74.80;40.17;;;3.40;99.90;;;;;;4974149;28;20200;-71
2022/03/21 01:39:39;;;;;;;77.60;39.77;;;3.30;99.90;;;;;;4974342;28;20196;-71
2022/03/21 01:42:06;;;;;;;80.00;39.73;;;3.20;99.90;;;;;;4976423;28;20192;-71
2022/03/21 01:44:32;;;;;;;68.30;40.03;;;3.30;99.90;;;;;;4992544;28;20212;-71
2022/03/21 01:46:57;;;;;;;73.73;40.77;;;3.30;99.90;;;;;;4988884;28;20302;-71
2022/03/21 01:49:25;;;;;;;73.47;38.60;;;3.30;99.90;;;;;;4973585;28;20251;-71
2022/03/21 01:51:50;;;;;;;75.67;38.97;;;3.30;99.90;;;;;;4974141;28;20208;-71
2022/03/21 01:57:01;;;;;;;69.50;38.43;;;3.30;99.90;;;;;;4975119;28;20719;-71
2022/03/21 01:59:27;;;;;;;77.83;38.80;;;3.20;99.90;;;;;;4958008;28;20212;-71
2022/03/21 02:01:53;;;;;;;69.07;39.50;;;3.20;99.90;;;;;;4957760;28;20243;-71
2022/03/21 02:04:19;;;;;;;77.37;38.97;;;3.20;99.90;;;;;;4957771;28;20193;-70
2022/03/21 02:06:45;;;;;;;66.30;37.53;;;3.10;99.90;;;;;;4983741;28;20593;-70
2022/03/21 02:09:12;;;;;;;71.00;37.70;;;3.00;99.90;;;;;;4991661;28;20574;-70
2022/03/21 02:11:38;;;;;;;80.73;37.57;;;3.10;99.90;;;;;;4974561;28;20947;-70
2022/03/21 02:14:06;;;;;;;69.17;38.50;;;3.10;99.90;;;;;;4974496;28;20618;-70
2022/03/21 02:16:37;;;;;;;75.03;39.20;;;3.10;99.90;;;;;;4974245;28;20232;-70
2022/03/21 02:19:24;;;;;;;71.67;38.67;;;3.10;99.90;;;;;;4974628;28;20543;-71
2022/03/21 02:22:29;;;;;;;76.90;37.63;;;3.10;99.90;;;;;;4974497;28;20199;-70
2022/03/21 02:24:55;;;;;;;68.70;36.33;;;3.10;99.90;;;;;;4983031;28;20180;-70
2022/03/21 02:27:25;;;;;;;77.47;38.83;;;3.10;99.90;;;;;;4974417;28;20704;-70
2022/03/21 02:29:52;;;;;;;76.80;38.47;;;3.10;99.90;;;;;;4980830;28;20184;-70
2022/03/21 02:32:19;;;;;;;70.10;38.17;;;3.00;99.90;;;;;;4961451;28;20278;-70
2022/03/21 02:34:46;;;;;;;74.83;38.93;;;3.10;99.90;;;;;;4973276;28;20279;-70
2022/03/21 02:37:16;;;;;;;76.90;39.87;;;3.00;99.90;;;;;;4973151;28;20211;-70
2022/03/21 02:39:42;;;;;;;76.97;40.20;;;3.00;99.90;;;;;;4974376;28;20217;-70
2022/03/21 02:42:09;;;;;;;67.80;35.67;;;3.00;99.90;;;;;;4985604;28;20250;-70
2022/03/21 02:44:36;;;;;;;70.73;40.00;;;2.90;99.90;;;;;;4988103;28;20662;-70
2022/03/21 02:47:03;;;;;;;76.30;39.77;;;2.90;99.90;;;;;;4974466;28;20227;-70
2022/03/21 02:49:29;;;;;;;81.17;38.63;;;2.90;99.90;;;;;;4972775;28;20198;-70
2022/03/21 02:51:56;;;;;;;81.47;39.67;;;2.90;99.90;;;;;;4973956;28;20216;-70
2022/03/21 02:54:23;;;;;;;76.50;37.93;;;2.90;99.90;;;;;;4979561;28;20195;-71
2022/03/21 02:56:56;;;;;;;77.07;38.27;;;2.80;99.90;;;;;;4981206;28;20197;-70
2022/03/21 02:59:21;;;;;;;71.10;38.00;;;2.90;99.90;;;;;;4974609;28;20223;-70
2022/03/21 03:01:47;;;;;;;75.50;39.77;;;2.80;99.90;;;;;;4974516;28;20667;-70
2022/03/21 03:04:13;;;;;;;73.57;38.60;;;2.80;99.90;;;;;;4960260;28;20611;-70
2022/03/21 03:06:43;;;;;;;74.53;38.13;;;2.80;99.90;;;;;;4960164;28;20184;-72
2022/03/21 03:09:09;;;;;;;77.17;39.87;;;2.80;99.90;;;;;;4979601;28;20290;-69
2022/03/21 03:11:38;;;;;;;70.43;38.60;;;2.90;99.90;;;;;;4978942;28;20303;-70
2022/03/21 03:14:05;;;;;;;85.73;40.80;;;2.90;99.90;;;;;;4976897;28;20231;-70
2022/03/21 03:16:30;;;;;;;79.17;39.93;;;2.90;99.90;;;;;;4978059;28;20223;-70
2022/03/21 03:18:56;;;;;;;73.20;39.43;;;2.90;99.90;;;;;;4977789;28;20603;-70
2022/03/21 03:21:25;;;;;;;74.43;40.13;;;2.80;99.90;;;;;;4977265;28;20211;-70
2022/03/21 03:23:52;;;;;;;74.97;39.03;;;2.80;99.90;;;;;;4977469;28;20609;-70
2022/03/21 03:26:18;;;;;;;72.57;39.00;;;2.80;99.90;;;;;;4976213;28;20216;-71
2022/03/21 03:28:45;;;;;;;75.40;40.33;;;2.80;99.90;;;;;;4976906;28;20235;-70
2022/03/21 03:31:14;;;;;;;72.73;38.77;;;2.80;99.90;;;;;;4976166;28;20209;-69
2022/03/21 03:33:39;;;;;;;74.13;40.03;;;2.80;99.90;;;;;;4975929;28;20196;-70
2022/03/21 03:36:06;;;;;;;78.27;40.13;;;2.80;99.90;;;;;;4977223;28;20544;-69
2022/03/21 03:38:32;;;;;;;71.97;40.10;;;2.80;99.90;;;;;;4977378;28;20220;-69
2022/03/21 03:40:57;;;;;;;74.93;38.73;;;2.70;99.90;;;;;;4977407;28;20220;-70
2022/03/21 03:43:23;;;;;;;71.77;39.17;;;2.70;99.90;;;;;;4976033;28;20189;-70
2022/03/21 03:45:52;;;;;;;77.60;38.30;;;2.70;99.90;;;;;;4977218;28;20200;-70
2022/03/21 03:48:21;;;;;;;82.70;38.97;;;2.70;99.90;;;;;;4975852;28;20193;-70
2022/03/21 03:50:47;;;;;;;74.90;38.90;;;2.70;99.90;;;;;;4979681;28;20226;-70
2022/03/21 03:53:13;;;;;;;71.80;39.23;;;2.70;99.90;;;;;;4995899;28;20192;-69
2022/03/21 03:55:38;;;;;;;75.23;38.53;;;2.70;99.90;;;;;;4963166;28;20192;-69
2022/03/21 03:58:04;;;;;;;76.57;39.37;;;2.60;99.90;;;;;;4976768;28;20263;-70
2022/03/21 04:00:30;;;;;;;74.97;38.33;;;2.60;99.90;;;;;;4996000;28;20588;-69
2022/03/21 04:05:39;;;;;;;77.57;39.90;;;2.60;99.90;;;;;;4976080;28;20281;-69
2022/03/21 04:08:05;;;;;;;79.30;40.90;;;2.50;99.90;;;;;;4975513;28;20197;-69
2022/03/21 04:10:31;;;;;;;82.40;41.47;;;2.50;99.90;;;;;;4976579;28;20267;-71
2022/03/21 04:12:57;;;;;;;74.40;37.40;;;2.50;99.90;;;;;;4976965;28;20193;-69
2022/03/21 04:15:23;;;;;;;82.47;41.30;;;2.40;99.90;;;;;;4959496;28;20239;-69
2022/03/21 04:17:50;;;;;;;82.20;39.87;;;2.40;99.90;;;;;;4976426;28;20189;-70
2022/03/21 04:20:16;;;;;;;73.73;37.73;;;2.30;99.90;;;;;;4976691;28;20183;-69
2022/03/21 04:22:42;;;;;;;90.07;41.63;;;2.30;99.90;;;;;;4979827;28;20231;-70
2022/03/21 04:25:13;;;;;;;76.50;42.50;;;2.30;99.90;;;;;;4993816;28;20223;-70
2022/03/21 04:27:39;;;;;;;78.23;39.23;;;2.30;99.90;;;;;;4992023;28;20185;-69
2022/03/21 04:30:06;;;;;;;73.17;36.60;;;2.20;99.90;;;;;;4976158;28;20607;-69
2022/03/21 04:32:32;;;;;;;72.40;39.63;;;2.20;99.90;;;;;;4974768;28;20701;-70
2022/03/21 04:34:58;;;;;;;82.77;40.17;;;2.20;99.90;;;;;;4975881;28;20555;-70
2022/03/21 04:37:25;;;;;;;76.93;38.63;;;2.30;99.90;;;;;;4975976;28;20197;-69
2022/03/21 04:39:50;;;;;;;68.77;36.50;;;2.30;99.90;;;;;;4974990;28;20199;-70
2022/03/21 04:42:16;;;;;;;73.77;41.03;;;2.20;99.90;;;;;;4976240;28;20172;-70
2022/03/21 04:44:44;;;;;;;73.37;38.73;;;2.20;99.90;;;;;;4975394;28;20281;-70
2022/03/21 04:47:10;;;;;;;73.87;40.07;;;2.20;99.90;;;;;;4976201;28;20189;-69
2022/03/21 04:49:36;;;;;;;65.60;36.10;;;2.10;99.90;;;;;;4987760;28;20188;-70
2022/03/21 04:52:02;;;;;;;71.07;37.00;;;2.10;99.90;;;;;;4985928;28;20278;-70
2022/03/21 04:54:28;;;;;;;80.10;36.67;;;2.10;99.90;;;;;;4975735;28;20719;-70
2022/03/21 04:56:55;;;;;;;74.17;38.97;;;2.10;99.90;;;;;;4975763;28;20275;-70
2022/03/21 04:59:20;;;;;;;74.07;37.23;;;2.00;99.90;;;;;;4974812;28;20283;-72
2022/03/21 05:01:47;;;;;;;82.33;36.70;;;2.10;99.90;;;;;;4983012;28;20240;-70
2022/03/21 05:04:13;;;;;;;72.80;37.40;;;2.10;99.90;;;;;;4958373;28;20181;-70
2022/03/21 05:06:42;;;;;;;75.70;38.83;;;2.10;99.90;;;;;;4975837;28;20179;-70
2022/03/21 05:09:08;;;;;;;74.23;38.50;;;2.10;99.90;;;;;;4975890;28;20204;-70
2022/03/21 05:11:34;;;;;;;69.27;36.37;;;2.00;99.90;;;;;;4975382;28;20212;-70
2022/03/21 05:13:59;;;;;;;71.03;38.43;;;2.00;99.90;;;;;;4974689;28;20650;-70
2022/03/21 05:16:25;;;;;;;72.60;35.80;;;2.00;99.90;;;;;;4975329;28;20192;-70
2022/03/21 05:18:50;;;;;;;69.10;37.33;;;2.00;99.90;;;;;;4974135;28;20200;-70
2022/03/21 05:21:17;;;;;;;77.73;37.43;;;2.00;99.90;;;;;;4974176;28;20251;-70
2022/03/21 05:31:56;;;;;;;75.00;37.97;;;2.00;99.90;;;;;;4974516;28;20230;-70
2022/03/21 05:37:06;;;;;;;76.13;33.87;;;1.90;99.90;;;;;;4975268;28;20194;-70
2022/03/21 05:39:31;;;;;;;61.67;31.80;;;1.90;99.90;;;;;;4975083;28;20567;-70
2022/03/21 05:41:57;;;;;;;68.93;36.73;;;2.00;99.90;;;;;;4977219;28;20281;-70
2022/03/21 05:44:24;;;;;;;72.23;36.47;;;2.00;99.90;;;;;;4973064;28;20185;-70
2022/03/21 05:46:50;;;;;;;69.63;35.90;;;2.10;99.90;;;;;;4957816;28;20565;-69
2022/03/21 05:49:15;;;;;;;71.80;36.23;;;2.10;99.90;;;;;;4957403;28;20193;-70
2022/03/21 05:51:41;;;;;;;68.10;36.17;;;2.10;99.90;;;;;;4974969;28;20271;-70
2022/03/21 05:54:10;;;;;;;66.97;35.70;;;2.10;99.90;;;;;;4973794;28;20232;-70
2022/03/21 05:56:37;;;;;;;71.57;37.30;;;2.10;99.90;;;;;;4974769;28;20251;-70
2022/03/21 06:01:51;;;;;;;67.20;34.30;;;2.10;99.90;;;;;;4975087;28;20211;-70
2022/03/21 06:04:18;;;;;;;64.40;34.57;;;2.10;99.90;;;;;;4988718;28;20196;-70
2022/03/21 06:06:44;;;;;;;68.70;37.50;;;2.10;99.90;;;;;;4985441;28;20193;-70
2022/03/21 06:09:10;;;;;;;71.77;37.03;;;2.10;99.90;;;;;;4972805;28;20196;-70
2022/03/21 06:11:36;;;;;;;66.80;34.37;;;2.10;99.90;;;;;;4979906;28;20553;-70
2022/03/21 06:14:05;;;;;;;69.20;36.33;;;2.10;99.90;;;;;;4977665;28;20203;-69
2022/03/21 06:16:35;;;;;;;74.87;38.17;;;2.20;99.90;;;;;;4974506;28;20197;-71
2022/03/21 06:19:00;;;;;;;79.63;38.47;;;2.20;99.90;;;;;;4984747;28;20188;-70
2022/03/21 06:21:29;;;;;;;78.40;40.50;;;2.30;99.90;;;;;;4973422;28;20235;-70
2022/03/21 06:23:55;;;;;;;82.27;39.83;;;2.40;99.90;;;;;;4973275;28;20828;-70
2022/03/21 06:26:21;;;;;;;69.10;36.40;;;2.50;99.90;;;;;;4974521;28;20203;-70
2022/03/21 06:28:47;;;;;;;77.23;37.90;;;2.50;99.90;;;;;;4973974;28;20196;-70
2022/03/21 06:31:13;;;;;;;74.93;38.43;;;2.60;99.90;;;;;;4973050;28;20216;-70
2022/03/21 06:33:39;;;;;;;71.93;36.13;;;2.60;99.90;;;;;;4973574;28;20188;-70
2022/03/21 06:36:05;;;;;;;66.27;38.27;;;2.80;99.90;;;;;;4984510;28;20192;-70
2022/03/21 06:38:31;;;;;;;67.53;36.50;;;2.90;99.90;;;;;;4976145;28;20327;-70
2022/03/21 06:40:57;;;;;;;67.87;35.47;;;3.00;99.90;;;;;;4987730;28;20224;-70
2022/03/21 06:43:24;;;;;;;68.33;38.00;;;3.10;99.90;;;;;;4973914;28;20181;-70
2022/03/21 06:45:54;;;;;;;75.33;38.17;;;3.10;99.90;;;;;;4973072;28;20188;-69
2022/03/21 06:48:21;;;;;;;59.57;35.37;;;3.20;99.90;;;;;;4980190;28;20188;-70
2022/03/21 06:50:47;;;;;;;72.30;34.57;;;3.30;99.90;;;;;;4982583;28;20281;-69
2022/03/21 06:53:14;;;;;;;71.97;38.13;;;3.40;99.90;;;;;;4974762;28;20200;-70
2022/03/21 06:55:41;;;;;;;63.33;35.77;;;3.50;99.90;;;;;;4983139;28;20203;-70
2022/03/21 06:58:09;;;;;;;68.73;38.33;;;3.60;99.90;;;;;;4973133;28;20183;-71
2022/03/21 07:00:34;;;;;;;65.03;33.40;;;3.70;99.90;;;;;;4973590;28;20181;-70
2022/03/21 07:03:00;;;;;;;61.47;32.93;;;3.90;99.90;;;;;;4980694;28;20271;-71
2022/03/21 07:05:28;;;;;;;60.53;35.43;;;4.10;99.90;;;;;;4982365;28;20188;-70
2022/03/21 07:07:54;;;;;;;64.73;34.43;;;4.20;99.90;;;;;;4990780;28;20242;-69
2022/03/21 07:10:20;;;;;;;63.43;32.87;;;4.30;99.90;;;;;;4972443;28;20188;-70
2022/03/21 07:12:46;;;;;;;59.97;32.27;;;4.50;99.90;;;;;;4979190;28;20199;-70
2022/03/21 07:15:12;;;;;;;64.07;34.97;;;4.50;99.90;;;;;;4966712;28;20192;-70
2022/03/21 07:17:40;;;;;;;67.67;34.43;;;4.60;99.90;;;;;;4973766;28;20272;-70
2022/03/21 07:20:06;;;;;;;53.23;32.33;;;4.70;99.90;;;;;;4978994;28;20204;-71
2022/03/21 07:22:32;;;;;;;63.57;33.27;;;5.00;99.90;;;;;;4956547;28;20250;-70
2022/03/21 07:24:57;;;;;;;60.13;33.47;;;5.20;99.90;;;;;;4972369;28;20268;-71
2022/03/21 07:27:23;;;;;;;60.80;32.03;;;6.20;99.90;;;;;;4972434;28;20188;-71
2022/03/21 07:29:49;;;;;;;52.60;30.70;;;7.50;99.90;;;;;;4956754;28;20192;-72
2022/03/21 07:32:15;;;;;;;54.33;28.40;;;8.80;99.90;;;;;;4972289;28;20628;-72
2022/03/21 07:34:40;;;;;;;51.57;29.73;;;9.90;99.90;;;;;;4973585;28;20251;-73
2022/03/21 07:37:06;;;;;;;44.20;27.37;;;10.40;99.90;;;;;;4952931;28;20191;-73
2022/03/21 07:39:34;;;;;;;52.77;28.47;;;10.70;99.90;;;;;;4989521;28;20207;-73
2022/03/21 07:42:01;;;;;;;47.30;28.63;;;10.90;99.90;;;;;;4972500;28;20215;-75
2022/03/21 07:47:28;;;;;;;43.42;25.67;;;11.30;99.90;;;;;;4950894;28;20535;-73
2022/03/21 07:49:55;;;;;;;46.10;27.77;;;12.40;99.90;;;;;;4958500;28;20188;-73
2022/03/21 07:52:22;;;;;;;42.97;24.58;;;13.20;99.90;;;;;;4983405;28;20211;-74
2022/03/21 07:54:53;;;;;;;45.00;26.90;;;13.80;99.90;;;;;;4981098;28;20227;-74
2022/03/21 07:57:29;;;;;;;40.67;25.40;;;14.50;99.90;;;;;;4976075;28;20183;-74
2022/03/21 07:59:54;;;;;;;44.22;23.67;;;14.90;99.90;;;;;;4992053;28;20192;-74
2022/03/21 08:02:21;;;;;;;40.70;23.48;;;15.40;99.90;;;;;;4976641;28;20264;-74
2022/03/21 08:04:48;;;;;;;40.75;24.75;;;16.00;99.90;;;;;;4995172;28;20215;-75
2022/03/21 08:07:17;;;;;;;37.97;23.05;;;16.40;99.90;;;;;;4978446;28;20219;-75
2022/03/21 08:09:43;;;;;;;34.60;23.02;;;16.60;99.90;;;;;;4977059;28;20215;-77
2022/03/21 08:12:09;;;;;;;37.90;23.02;;;15.80;99.90;;;;;;4987261;28;20219;-75
2022/03/21 08:14:36;;;;;;;30.33;20.73;;;15.40;99.90;;;;;;4968302;28;20208;-75
2022/03/21 08:17:05;;;;;;;35.75;20.55;;;15.60;99.90;;;;;;4975487;28;20725;-75
2022/03/21 08:19:31;;;;;;;31.63;18.92;;;15.30;99.90;;;;;;4983797;28;20649;-75
2022/03/21 08:21:56;;;;;;;37.22;22.02;;;15.80;99.90;;;;;;4961965;28;20199;-75
2022/03/21 08:24:23;;;;;;;32.20;19.77;;;15.80;99.90;;;;;;4993865;28;20215;-75
2022/03/21 08:26:49;;;;;;;27.13;17.88;;;16.20;99.90;;;;;;4976543;28;20692;-76
2022/03/21 08:29:15;;;;;;;31.95;17.92;;;16.00;99.90;;;;;;4975164;28;20192;-75
2022/03/21 08:31:42;;;;;;;31.77;18.58;;;16.40;99.90;;;;;;4974784;28;20215;-75
2022/03/21 08:34:07;;;;;;;30.30;18.20;;;16.70;99.90;;;;;;4976234;28;20220;-75
2022/03/21 08:36:33;;;;;;;42.65;19.70;;;15.50;99.90;;;;;;4976864;28;20231;-75
2022/03/21 08:39:00;;;;;;;29.02;17.85;;;14.70;99.90;;;;;;4974784;28;20567;-75
2022/03/21 08:41:26;;;;;;;32.65;17.10;;;14.70;99.90;;;;;;4989150;28;20807;-75
2022/03/21 08:43:52;;;;;;;29.20;18.23;;;14.60;99.90;;;;;;4976445;28;20279;-74
2022/03/21 08:46:18;;;;;;;31.98;17.98;;;14.70;99.90;;;;;;4978860;28;20645;-73
2022/03/21 08:51:27;;;;;;;27.55;17.55;;;13.90;99.90;;;;;;4970858;28;20792;-73
2022/03/21 08:53:53;;;;;;;30.02;17.58;;;13.30;99.90;;;;;;4975210;28;20245;-73
2022/03/21 08:56:19;;;;;;;28.48;17.08;;;12.80;99.90;;;;;;4974473;28;20553;-73
2022/03/21 08:58:44;;;;;;;33.75;18.20;;;12.50;99.90;;;;;;4974482;28;20184;-73
2022/03/21 09:01:10;;;;;;;36.17;19.73;;;12.50;99.90;;;;;;4973604;28;20570;-73
2022/03/21 09:03:36;;;;;;;31.77;18.40;;;12.50;99.90;;;;;;4958205;28;20189;-73
2022/03/21 09:06:01;;;;;;;35.38;18.42;;;12.60;99.90;;;;;;4958300;28;20200;-73
2022/03/21 09:08:27;;;;;;;34.05;20.38;;;12.60;99.90;;;;;;4974321;28;20211;-73
2022/03/21 09:10:53;;;;;;;34.38;18.35;;;12.40;99.90;;;;;;4958401;28;20216;-73
2022/03/21 09:13:19;;;;;;;34.67;19.63;;;12.50;99.90;;;;;;4967752;28;20239;-73
2022/03/21 09:15:45;;;;;;;30.08;18.27;;;12.30;99.90;;;;;;4982746;28;20733;-74
2022/03/21 09:18:10;;;;;;;34.53;16.85;;;12.00;99.90;;;;;;4960290;28;20284;-67
2022/03/21 09:20:37;;;;;;;30.13;16.80;;;11.90;99.90;;;;;;4988721;28;20227;-69
2022/03/21 09:23:04;;;;;;;28.17;16.45;;;12.00;99.90;;;;;;4985025;28;20626;-79
2022/03/21 09:25:30;;;;;;;27.55;16.75;;;12.20;99.90;;;;;;4975460;28;20176;-71
2022/03/21 09:27:55;;;;;;;33.25;18.17;;;12.40;99.90;;;;;;4993120;28;20192;-74
2022/03/21 09:30:21;;;;;;;33.38;18.73;;;12.40;99.90;;;;;;4989898;28;20246;-74
2022/03/21 09:32:47;;;;;;;25.33;17.40;;;12.10;99.90;;;;;;4981564;28;20704;-72
2022/03/21 09:35:13;;;;;;;31.67;17.65;;;12.30;99.90;;;;;;4975270;28;20193;-72
2022/03/21 09:37:39;;;;;;;31.98;18.83;;;12.50;99.90;;;;;;4975227;28;20262;-74
2022/03/21 09:40:06;;;;;;;27.70;17.23;;;12.60;99.90;;;;;;4973666;28;20204;-78
2022/03/21 09:42:34;;;;;;;24.52;17.27;;;12.80;99.90;;;;;;4975130;28;20292;-71
2022/03/21 09:45:00;;;;;;;30.73;18.27;;;13.00;99.90;;;;;;4973768;28;20189;-70
2022/03/21 09:50:12;;;;;;;26.35;16.95;;;13.30;99.90;;;;;;4975382;28;20231;-71
2022/03/21 09:52:39;;;;;;;29.90;17.42;;;13.30;99.90;;;;;;4974735;28;20221;-70
2022/03/21 09:55:09;;;;;;;32.95;17.05;;;13.20;99.90;;;;;;4973392;28;20216;-68
2022/03/21 09:57:39;;;;;;;27.38;17.42;;;13.50;99.90;;;;;;4975162;28;20220;-69
2022/03/21 10:00:06;;;;;;;27.88;16.65;;;13.70;99.90;;;;;;4974976;28;20228;-69
2022/03/21 10:02:34;;;;;;;27.70;17.30;;;13.90;99.90;;;;;;4975145;28;20191;-68
2022/03/21 10:05:00;;;;;;;28.65;18.63;;;14.00;99.90;;;;;;4974995;28;20188;-70
2022/03/21 10:07:27;;;;;;;29.75;18.60;;;14.00;99.90;;;;;;4974437;28;20219;-69
2022/03/21 10:10:12;;;;;;;25.90;15.38;;;14.30;99.90;;;;;;4975667;28;20227;-68
2022/03/21 10:12:39;;;;;;;28.25;17.75;;;14.20;99.90;;;;;;4981895;28;20279;-73
2022/03/21 10:15:06;;;;;;;25.20;16.58;;;14.10;99.90;;;;;;4973147;28;21030;-71
2022/03/21 10:17:32;;;;;;;29.05;17.30;;;14.10;99.90;;;;;;4973595;28;20267;-68
2022/03/21 10:19:58;;;;;;;32.05;17.45;;;14.10;99.90;;;;;;4974188;28;20275;-70
2022/03/21 10:22:33;;;;;;;31.80;18.23;;;14.30;99.90;;;;;;4973538;28;20188;-70
2022/03/21 10:25:07;;;;;;;29.33;16.58;;;14.30;99.90;;;;;;4981326;28;20215;-69
2022/03/21 10:27:35;;;;;;;32.67;16.88;;;14.30;99.90;;;;;;4993895;28;20611;-69
2022/03/21 10:30:03;;;;;;;26.52;15.45;;;14.30;99.90;;;;;;4974665;28;20176;-70
2022/03/21 10:33:08;;;;;;;30.48;17.13;;;14.70;99.90;;;;;;4972997;28;20699;-70
2022/03/21 10:35:43;;;;;;;22.80;15.10;;;15.00;99.90;;;;;;4917558;29;20285;-69
2022/03/21 10:38:09;;;;;;;27.25;14.55;;;15.00;99.90;;;;;;4918913;29;20182;-70
2022/03/21 10:40:43;;;;;;;26.50;16.65;;;15.20;99.90;;;;;;4967320;28;20208;-70
2022/03/21 10:43:11;;;;;;;23.00;15.20;;;15.30;99.90;;;;;;4977898;28;20191;-69
2022/03/21 10:45:43;;;;;;;29.63;14.55;;;15.40;99.90;;;;;;4975412;28;20231;-69
2022/03/21 10:48:19;;;;;;;28.73;16.15;;;15.40;99.90;;;;;;4974647;28;20216;-70
2022/03/21 10:50:46;;;;;;;26.13;14.82;;;15.30;99.90;;;;;;4979433;28;20180;-72
2022/03/21 10:53:38;;;;;;;33.30;17.02;;;15.40;99.90;;;;;;4984434;28;20192;-70
2022/03/21 10:56:10;;;;;;;23.58;14.80;;;15.50;99.90;;;;;;4971383;28;20201;-70
2022/03/21 10:58:43;;;;;;;22.98;14.38;;;15.40;99.90;;;;;;4974145;28;20275;-70
2022/03/21 11:01:29;;;;;;;32.25;17.42;;;15.40;99.90;;;;;;4973538;28;20200;-71
2022/03/21 11:03:59;;;;;;;23.85;15.50;;;15.50;99.90;;;;;;4972957;28;20272;-70
2022/03/21 11:06:29;;;;;;;31.77;16.77;;;15.60;99.90;;;;;;4974269;28;20235;-70
2022/03/21 11:08:55;;;;;;;23.83;16.75;;;15.70;99.90;;;;;;4956962;28;20216;-70
2022/03/21 11:11:22;;;;;;;29.15;16.27;;;15.90;99.90;;;;;;4981707;28;20203;-70
2022/03/21 11:13:49;;;;;;;24.83;13.90;;;16.20;99.90;;;;;;4983928;28;20280;-71
2022/03/21 11:16:19;;;;;;;28.35;16.00;;;16.10;99.90;;;;;;4988108;28;20193;-70
2022/03/21 11:18:46;;;;;;;25.92;14.15;;;15.80;99.90;;;;;;4980788;28;20648;-70
2022/03/21 11:21:13;;;;;;;26.70;15.73;;;15.90;99.90;;;;;;4982519;28;20637;-70
2022/03/21 11:23:40;;;;;;;30.48;17.42;;;16.10;99.90;;;;;;4987512;28;20181;-69
2022/03/21 11:26:39;;;;;;;35.08;17.58;;;16.10;99.90;;;;;;4977786;28;20192;-70
2022/03/21 11:29:33;;;;;;;26.80;16.73;;;16.20;99.90;;;;;;4977523;28;20255;-70
2022/03/21 11:32:19;;;;;;;26.63;17.08;;;15.90;99.90;;;;;;4980883;28;20223;-70
2022/03/21 11:35:13;;;;;;;26.90;16.58;;;15.60;99.90;;;;;;4976078;28;20649;-69
2022/03/21 11:37:39;;;;;;;27.40;17.00;;;15.50;99.90;;;;;;4975916;28;20189;-69
2022/03/21 11:40:26;;;;;;;25.73;16.92;;;15.40;99.90;;;;;;4977522;28;20236;-69
2022/03/21 11:42:53;;;;;;;30.55;18.25;;;15.60;99.90;;;;;;4977257;28;20646;-69
2022/03/21 11:45:34;;;;;;;27.48;16.13;;;15.60;99.90;;;;;;4976852;28;20188;-69
2022/03/21 11:48:18;;;;;;;26.25;14.52;;;15.70;99.90;;;;;;4976222;28;20193;-70
2022/03/21 11:50:49;;;;;;;26.08;16.33;;;16.00;99.90;;;;;;4975590;28;20192;-70
2022/03/21 11:53:17;;;;;;;31.40;16.20;;;16.30;99.90;;;;;;4977004;28;20197;-70
2022/03/21 11:55:44;;;;;;;24.08;14.85;;;16.50;99.90;;;;;;4981084;28;20195;-70
2022/03/21 11:58:22;;;;;;;24.75;14.30;;;16.60;99.90;;;;;;4980662;28;20192;-70
2022/03/21 12:01:09;;;;;;;21.92;13.38;;;16.70;99.90;;;;;;4976871;28;20195;-69
2022/03/21 12:03:37;;;;;;;23.65;14.43;;;17.10;99.90;;;;;;4977217;28;20192;-70
2022/03/21 12:06:27;;;;;;;18.15;12.07;;;17.30;99.90;;;;;;4960388;28;20668;-70
2022/03/21 12:08:56;;;;;;;20.30;12.32;;;17.30;99.90;;;;;;4992623;28;20560;-70
2022/03/21 12:11:37;;;;;;;20.23;13.95;;;17.40;99.90;;;;;;4976511;28;20692;-70
2022/03/21 12:14:25;;;;;;;26.63;15.70;;;16.90;99.90;;;;;;4975243;28;20203;-71
2022/03/21 12:17:03;;;;;;;25.08;14.77;;;16.60;99.90;;;;;;4983926;28;20192;-70
2022/03/21 12:19:52;;;;;;;22.02;12.82;;;16.60;99.90;;;;;;4977267;28;20216;-70
2022/03/21 12:22:27;;;;;;;17.00;11.43;;;17.00;99.90;;;;;;4975407;28;20204;-70
2022/03/21 12:24:53;;;;;;;17.73;9.75;;;17.50;99.90;;;;;;4975126;28;20185;-70
2022/03/21 12:27:38;;;;;;;16.27;10.80;;;17.70;99.90;;;;;;4976438;28;20259;-70
2022/03/21 12:30:35;;;;;;;16.65;10.90;;;18.00;99.90;;;;;;4976898;28;20196;-70
2022/03/21 12:33:05;;;;;;;18.85;10.98;;;18.10;99.90;;;;;;4968502;28;20543;-71
2022/03/21 12:35:31;;;;;;;14.80;10.98;;;18.20;99.90;;;;;;4975659;28;20188;-71
2022/03/21 12:38:04;;;;;;;17.60;11.18;;;18.30;99.90;;;;;;4976979;28;20188;-70
2022/03/21 12:40:34;;;;;;;16.88;10.98;;;18.10;99.90;;;;;;4975458;28;20192;-70
2022/03/21 12:43:01;;;;;;;17.17;11.20;;;18.00;99.90;;;;;;4976072;28;20189;-71
2022/03/21 12:45:31;;;;;;;14.43;9.30;;;18.00;99.90;;;;;;4976093;28;20189;-70
2022/03/21 12:48:04;;;;;;;15.23;9.65;;;18.00;99.90;;;;;;4988911;28;20199;-70
2022/03/21 12:50:31;;;;;;;16.00;9.73;;;18.30;99.90;;;;;;4976505;28;20649;-70
2022/03/21 12:53:06;;;;;;;24.80;11.60;;;18.50;99.90;;;;;;4974856;28;20204;-71
2022/03/21 12:55:33;;;;;;;16.35;9.93;;;18.50;99.90;;;;;;4983795;28;20191;-70
2022/03/21 12:58:08;;;;;;;17.58;9.93;;;18.40;99.90;;;;;;4982362;28;20189;-71
2022/03/21 13:00:38;;;;;;;29.02;10.48;;;18.40;99.90;;;;;;4974908;28;20649;-70
2022/03/21 13:03:11;;;;;;;17.35;9.38;;;18.40;99.90;;;;;;4975854;28;20192;-71
2022/03/21 13:11:26;;;;;;;14.80;9.55;;;18.20;99.90;;;;;;4975729;28;20282;-71
2022/03/21 13:13:59;;;;;;;16.95;9.15;;;18.30;99.90;;;;;;4990234;28;20541;-71